createdAt,value
2023-05-09T00:00:35.926Z,549.0000
2023-05-09T00:01:38.257Z,548.0000
2023-05-09T00:02:40.507Z,551.0000
2023-05-09T00:03:42.514Z,552.0000
2023-05-09T00:04:44.735Z,551.0000
2023-05-09T00:05:46.886Z,550.0000
2023-05-09T00:06:49.106Z,548.0000
2023-05-09T00:07:51.341Z,546.0000
2023-05-09T00:08:53.464Z,550.0000
2023-05-09T00:09:53.492Z,547.0000
2023-05-09T00:10:55.706Z,547.0000
2023-05-09T00:11:57.907Z,544.0000
2023-05-09T00:13:00.140Z,546.0000
2023-05-09T00:14:02.261Z,548.0000
2023-05-09T00:15:04.464Z,550.0000
2023-05-09T00:16:06.727Z,549.0000
2023-05-09T00:17:09.061Z,550.0000
2023-05-09T00:18:11.271Z,550.0000
2023-05-09T00:19:13.419Z,549.0000
2023-05-09T00:20:15.636Z,548.0000
2023-05-09T00:21:17.864Z,547.0000
2023-05-09T00:22:20.104Z,549.0000
2023-05-09T00:23:22.392Z,550.0000
2023-05-09T00:24:24.489Z,546.0000
2023-05-09T00:25:26.664Z,547.0000
2023-05-09T00:26:26.723Z,545.0000
2023-05-09T00:27:28.961Z,546.0000
2023-05-09T00:28:31.306Z,546.0000
2023-05-09T00:29:33.501Z,546.0000
2023-05-09T00:30:35.699Z,546.0000
2023-05-09T00:31:37.967Z,546.0000
2023-05-09T00:32:44.154Z,535.0000
2023-05-09T00:33:44.735Z,540.0000
2023-05-09T00:34:46.767Z,542.0000
2023-05-09T00:35:48.942Z,540.0000
2023-05-09T00:36:51.141Z,540.0000
2023-05-09T00:37:53.333Z,541.0000
2023-05-09T00:38:55.579Z,539.0000
2023-05-09T00:39:57.735Z,538.0000
2023-05-09T00:40:59.940Z,536.0000
2023-05-09T00:42:02.107Z,538.0000
2023-05-09T00:43:04.308Z,539.0000
2023-05-09T00:44:05.522Z,536.0000
2023-05-09T00:45:06.601Z,537.0000
2023-05-09T00:46:08.839Z,537.0000
2023-05-09T00:47:11.047Z,537.0000
2023-05-09T00:48:13.420Z,539.0000
2023-05-09T00:49:15.575Z,539.0000
2023-05-09T00:50:17.813Z,540.0000
2023-05-09T00:51:20.031Z,537.0000
2023-05-09T00:52:22.271Z,540.0000
2023-05-09T00:53:24.519Z,539.0000
2023-05-09T00:54:26.811Z,538.0000
2023-05-09T00:55:26.870Z,538.0000
2023-05-09T00:56:29.084Z,536.0000
2023-05-09T00:57:31.357Z,538.0000
2023-05-09T00:58:33.585Z,540.0000
2023-05-09T00:59:35.870Z,542.0000
2023-05-09T01:00:38.085Z,540.0000
2023-05-09T01:01:40.412Z,539.0000
2023-05-09T01:02:42.645Z,536.0000
2023-05-09T01:03:44.932Z,537.0000
2023-05-09T01:04:46.857Z,539.0000
2023-05-09T01:05:49.094Z,540.0000
2023-05-09T01:06:51.266Z,540.0000
2023-05-09T01:07:53.508Z,541.0000
2023-05-09T01:08:55.766Z,539.0000
2023-05-09T01:09:58.087Z,541.0000
2023-05-09T01:11:00.196Z,542.0000
2023-05-09T01:12:02.367Z,543.0000
2023-05-09T01:13:04.557Z,541.0000
2023-05-09T01:14:06.758Z,542.0000
2023-05-09T01:15:08.971Z,541.0000
2023-05-09T01:16:11.240Z,542.0000
2023-05-09T01:17:13.428Z,544.0000
2023-05-09T01:18:15.693Z,544.0000
2023-05-09T01:19:18.008Z,544.0000
2023-05-09T01:20:18.120Z,542.0000
2023-05-09T01:21:20.241Z,541.0000
2023-05-09T01:22:22.473Z,542.0000
2023-05-09T01:23:24.733Z,541.0000
2023-05-09T01:24:26.927Z,543.0000
2023-05-09T01:25:29.294Z,541.0000
2023-05-09T01:26:31.417Z,539.0000
2023-05-09T01:27:33.669Z,539.0000
2023-05-09T01:28:35.937Z,541.0000
2023-05-09T01:29:38.174Z,543.0000
2023-05-09T01:30:40.384Z,543.0000
2023-05-09T01:31:40.472Z,544.0000
2023-05-09T01:32:42.786Z,546.0000
2023-05-09T01:33:44.888Z,547.0000
2023-05-09T01:34:47.256Z,548.0000
2023-05-09T01:35:49.357Z,546.0000
2023-05-09T01:36:51.607Z,545.0000
2023-05-09T01:37:53.809Z,545.0000
2023-05-09T01:38:56.013Z,545.0000
2023-05-09T01:39:58.189Z,545.0000
2023-05-09T01:41:00.479Z,545.0000
2023-05-09T01:42:02.616Z,540.0000
2023-05-09T01:43:04.834Z,540.0000
2023-05-09T01:44:07.028Z,541.0000
2023-05-09T01:45:07.788Z,529.0000
2023-05-09T01:46:09.484Z,541.0000
2023-05-09T01:47:11.470Z,546.0000
2023-05-09T01:48:13.621Z,545.0000
2023-05-09T01:49:15.809Z,542.0000
2023-05-09T01:50:18.102Z,542.0000
2023-05-09T01:51:20.233Z,543.0000
2023-05-09T01:52:22.332Z,544.0000
2023-05-09T01:53:24.568Z,548.0000
2023-05-09T01:54:26.739Z,550.0000
2023-05-09T01:55:28.987Z,555.0000
2023-05-09T01:56:31.217Z,560.0000
2023-05-09T01:57:33.391Z,563.0000
2023-05-09T01:58:35.593Z,563.0000
2023-05-09T01:59:37.778Z,565.0000
2023-05-09T02:00:37.914Z,563.0000
2023-05-09T02:01:40.127Z,568.0000
2023-05-09T02:02:43.910Z,570.0000
2023-05-09T02:03:44.384Z,571.0000
2023-05-09T02:04:46.565Z,573.0000
2023-05-09T02:05:48.848Z,576.0000
2023-05-09T02:06:50.968Z,574.0000
2023-05-09T02:07:53.011Z,577.0000
2023-05-09T02:08:55.211Z,575.0000
2023-05-09T02:09:57.375Z,575.0000
2023-05-09T02:10:59.556Z,573.0000
2023-05-09T02:12:02.258Z,575.0000
2023-05-09T02:13:03.908Z,575.0000
2023-05-09T02:14:06.036Z,577.0000
2023-05-09T02:15:08.218Z,579.0000
2023-05-09T02:16:10.440Z,582.0000
2023-05-09T02:17:12.661Z,582.0000
2023-05-09T02:18:14.661Z,584.0000
2023-05-09T02:19:16.855Z,584.0000
2023-05-09T02:20:19.035Z,583.0000
2023-05-09T02:21:21.211Z,581.0000
2023-05-09T02:22:23.396Z,580.0000
2023-05-09T02:23:25.533Z,579.0000
2023-05-09T02:24:27.701Z,579.0000
2023-05-09T02:25:29.870Z,581.0000
2023-05-09T02:26:32.072Z,582.0000
2023-05-09T02:27:34.351Z,583.0000
2023-05-09T02:28:36.446Z,582.0000
2023-05-09T02:29:38.665Z,578.0000
2023-05-09T02:30:40.798Z,574.0000
2023-05-09T02:31:42.961Z,573.0000
2023-05-09T02:32:45.352Z,574.0000
2023-05-09T02:33:47.347Z,573.0000
2023-05-09T02:34:49.475Z,574.0000
2023-05-09T02:35:51.606Z,575.0000
2023-05-09T02:36:53.888Z,575.0000
2023-05-09T02:37:56.045Z,576.0000
2023-05-09T02:38:55.926Z,575.0000
2023-05-09T02:39:58.146Z,573.0000
2023-05-09T02:41:00.394Z,569.0000
2023-05-09T02:42:02.618Z,567.0000
2023-05-09T02:43:04.880Z,569.0000
2023-05-09T02:44:07.104Z,570.0000
2023-05-09T02:45:09.346Z,571.0000
2023-05-09T02:46:11.647Z,570.0000
2023-05-09T02:47:13.739Z,568.0000
2023-05-09T02:48:15.952Z,567.0000
2023-05-09T02:49:31.486Z,565.0000
2023-05-09T02:50:20.202Z,566.0000
2023-05-09T02:51:22.401Z,566.0000
2023-05-09T02:52:24.723Z,564.0000
2023-05-09T02:53:26.865Z,564.0000
2023-05-09T02:54:28.919Z,563.0000
2023-05-09T02:55:31.052Z,562.0000
2023-05-09T02:56:33.218Z,563.0000
2023-05-09T02:57:33.284Z,561.0000
2023-05-09T02:58:35.589Z,562.0000
2023-05-09T03:00:11.605Z,576.0000
2023-05-09T03:01:12.263Z,561.0000
2023-05-09T03:02:14.292Z,557.0000
2023-05-09T03:03:16.501Z,556.0000
2023-05-09T03:04:18.739Z,556.0000
2023-05-09T03:05:20.785Z,557.0000
2023-05-09T03:06:22.950Z,557.0000
2023-05-09T03:07:25.113Z,555.0000
2023-05-09T03:08:27.416Z,554.0000
2023-05-09T03:09:29.496Z,554.0000
2023-05-09T03:10:31.669Z,555.0000
2023-05-09T03:11:33.827Z,556.0000
2023-05-09T03:12:36.011Z,559.0000
2023-05-09T03:13:38.147Z,559.0000
2023-05-09T03:14:40.451Z,561.0000
2023-05-09T03:15:42.554Z,562.0000
2023-05-09T03:16:44.697Z,563.0000
2023-05-09T03:17:46.915Z,563.0000
2023-05-09T03:18:49.025Z,564.0000
2023-05-09T03:19:51.337Z,566.0000
2023-05-09T03:20:53.395Z,569.0000
2023-05-09T03:21:55.555Z,570.0000
2023-05-09T03:22:57.734Z,573.0000
2023-05-09T03:23:59.997Z,574.0000
2023-05-09T03:25:02.159Z,580.0000
2023-05-09T03:26:04.197Z,582.0000
2023-05-09T03:27:06.371Z,583.0000
2023-05-09T03:28:08.538Z,586.0000
2023-05-09T03:29:10.745Z,589.0000
2023-05-09T03:30:13.052Z,591.0000
2023-05-09T03:31:12.988Z,593.0000
2023-05-09T03:32:15.353Z,596.0000
2023-05-09T03:33:17.315Z,598.0000
2023-05-09T03:34:19.501Z,598.0000
2023-05-09T03:35:21.852Z,601.0000
2023-05-09T03:36:23.856Z,605.0000
2023-05-09T03:37:27.241Z,609.0000
2023-05-09T03:38:28.288Z,610.0000
2023-05-09T03:39:28.488Z,611.0000
2023-05-09T03:40:30.681Z,613.0000
2023-05-09T03:41:32.801Z,617.0000
2023-05-09T03:42:34.953Z,621.0000
2023-05-09T03:43:37.169Z,625.0000
2023-05-09T03:44:39.317Z,624.0000
2023-05-09T03:45:41.595Z,624.0000
2023-05-09T03:46:43.707Z,621.0000
2023-05-09T03:47:45.909Z,619.0000
2023-05-09T03:48:48.049Z,621.0000
2023-05-09T03:49:50.303Z,624.0000
2023-05-09T03:50:52.511Z,625.0000
2023-05-09T03:51:54.683Z,627.0000
2023-05-09T03:52:56.847Z,625.0000
2023-05-09T03:53:59.041Z,630.0000
2023-05-09T03:55:01.328Z,631.0000
2023-05-09T03:56:03.451Z,635.0000
2023-05-09T03:57:05.616Z,639.0000
2023-05-09T03:58:07.811Z,644.0000
2023-05-09T03:59:07.869Z,644.0000
2023-05-09T04:00:10.071Z,644.0000
2023-05-09T04:01:12.302Z,644.0000
2023-05-09T04:02:14.565Z,648.0000
2023-05-09T04:03:16.760Z,651.0000
2023-05-09T04:04:18.855Z,652.0000
2023-05-09T04:05:21.089Z,656.0000
2023-05-09T04:06:23.430Z,658.0000
2023-05-09T04:07:25.512Z,659.0000
2023-05-09T04:08:27.705Z,660.0000
2023-05-09T04:09:29.851Z,662.0000
2023-05-09T04:10:32.159Z,661.0000
2023-05-09T04:11:34.231Z,659.0000
2023-05-09T04:12:36.438Z,657.0000
2023-05-09T04:13:38.654Z,661.0000
2023-05-09T04:14:40.901Z,659.0000
2023-05-09T04:15:40.986Z,658.0000
2023-05-09T04:16:43.499Z,660.0000
2023-05-09T04:17:45.503Z,663.0000
2023-05-09T04:18:47.714Z,664.0000
2023-05-09T04:19:49.935Z,661.0000
2023-05-09T04:20:52.155Z,661.0000
2023-05-09T04:21:54.437Z,662.0000
2023-05-09T04:22:56.529Z,667.0000
2023-05-09T04:23:58.646Z,673.0000
2023-05-09T04:25:00.821Z,676.0000
2023-05-09T04:26:03.120Z,679.0000
2023-05-09T04:28:20.386Z,672.0000
2023-05-09T04:29:22.512Z,673.0000
2023-05-09T04:30:24.702Z,673.0000
2023-05-09T04:31:26.939Z,675.0000
2023-05-09T04:32:29.113Z,677.0000
2023-05-09T04:33:31.333Z,681.0000
2023-05-09T04:34:33.526Z,682.0000
2023-05-09T04:35:35.751Z,684.0000
2023-05-09T04:36:37.998Z,686.0000
2023-05-09T04:37:40.212Z,689.0000
2023-05-09T04:38:42.501Z,692.0000
2023-05-09T04:39:44.563Z,693.0000
2023-05-09T04:40:46.753Z,696.0000
2023-05-09T04:41:46.948Z,695.0000
2023-05-09T04:42:49.035Z,698.0000
2023-05-09T04:43:51.316Z,697.0000
2023-05-09T04:44:53.403Z,696.0000
2023-05-09T04:45:55.624Z,696.0000
2023-05-09T04:46:57.790Z,695.0000
2023-05-09T04:48:00.013Z,694.0000
2023-05-09T04:49:02.313Z,695.0000
2023-05-09T04:50:04.357Z,698.0000
2023-05-09T04:51:06.556Z,699.0000
2023-05-09T04:52:08.741Z,705.0000
2023-05-09T04:53:10.979Z,706.0000
2023-05-09T04:54:13.199Z,708.0000
2023-05-09T04:55:15.618Z,709.0000
2023-05-09T04:56:17.552Z,709.0000
2023-05-09T04:57:19.857Z,710.0000
2023-05-09T04:58:21.915Z,711.0000
2023-05-09T04:59:24.083Z,714.0000
2023-05-09T05:00:26.206Z,712.0000
2023-05-09T05:01:28.369Z,708.0000
2023-05-09T05:02:30.586Z,707.0000
2023-05-09T05:03:32.717Z,706.0000
2023-05-09T05:04:34.884Z,707.0000
2023-05-09T05:05:37.876Z,707.0000
2023-05-09T05:06:39.207Z,708.0000
2023-05-09T05:07:39.311Z,708.0000
2023-05-09T05:08:41.541Z,677.0000
2023-05-09T05:09:43.815Z,666.0000
2023-05-09T05:10:46.009Z,650.0000
2023-05-09T05:11:59.437Z,610.0000
2023-05-09T05:12:50.652Z,606.0000
2023-05-09T05:13:52.747Z,613.0000
2023-05-09T05:14:55.021Z,666.0000
2023-05-09T05:15:57.180Z,671.0000
2023-05-09T05:16:59.341Z,670.0000
2023-05-09T05:18:01.607Z,664.0000
2023-05-09T05:19:03.736Z,661.0000
2023-05-09T05:20:05.998Z,660.0000
2023-05-09T05:21:06.030Z,659.0000
2023-05-09T05:22:08.257Z,658.0000
2023-05-09T05:23:10.435Z,660.0000
2023-05-09T05:24:12.648Z,659.0000
2023-05-09T05:25:15.278Z,660.0000
2023-05-09T05:26:17.103Z,660.0000
2023-05-09T05:27:19.297Z,659.0000
2023-05-09T05:28:21.591Z,660.0000
2023-05-09T05:29:23.664Z,658.0000
2023-05-09T05:30:25.950Z,658.0000
2023-05-09T05:31:28.187Z,659.0000
2023-05-09T05:32:30.372Z,659.0000
2023-05-09T05:33:32.615Z,659.0000
2023-05-09T05:34:32.708Z,658.0000
2023-05-09T05:35:34.957Z,659.0000
2023-05-09T05:36:37.184Z,656.0000
2023-05-09T05:37:39.412Z,655.0000
2023-05-09T05:38:41.670Z,655.0000
2023-05-09T05:39:43.890Z,659.0000
2023-05-09T05:40:46.265Z,659.0000
2023-05-09T05:41:48.430Z,660.0000
2023-05-09T05:42:50.679Z,660.0000
2023-05-09T05:43:54.232Z,661.0000
2023-05-09T05:44:53.050Z,662.0000
2023-05-09T05:45:55.342Z,663.0000
2023-05-09T05:46:57.537Z,665.0000
2023-05-09T05:47:59.809Z,662.0000
2023-05-09T05:49:01.881Z,662.0000
2023-05-09T05:50:04.073Z,659.0000
2023-05-09T05:51:06.314Z,658.0000
2023-05-09T05:52:08.450Z,657.0000
2023-05-09T05:53:10.666Z,655.0000
2023-05-09T05:54:12.832Z,652.0000
2023-05-09T05:55:15.298Z,651.0000
2023-05-09T05:56:17.362Z,652.0000
2023-05-09T05:57:19.518Z,648.0000
2023-05-09T05:58:21.720Z,645.0000
2023-05-09T05:59:22.023Z,644.0000
2023-05-09T06:00:24.035Z,645.0000
2023-05-09T06:01:26.375Z,644.0000
2023-05-09T06:02:27.392Z,642.0000
2023-05-09T06:04:30.831Z,640.0000
2023-05-09T06:05:33.036Z,642.0000
2023-05-09T06:06:35.385Z,643.0000
2023-05-09T06:07:37.498Z,641.0000
2023-05-09T06:08:39.710Z,638.0000
2023-05-09T06:09:39.825Z,638.0000
2023-05-09T06:10:42.088Z,637.0000
2023-05-09T06:11:44.450Z,634.0000
2023-05-09T06:12:46.637Z,631.0000
2023-05-09T06:13:48.866Z,631.0000
2023-05-09T06:14:51.260Z,629.0000
2023-05-09T06:15:53.373Z,630.0000
2023-05-09T06:16:55.704Z,632.0000
2023-05-09T06:17:57.874Z,628.0000
2023-05-09T06:18:57.858Z,625.0000
2023-05-09T06:20:00.009Z,618.0000
2023-05-09T06:21:02.237Z,609.0000
2023-05-09T06:22:04.446Z,603.0000
2023-05-09T06:23:06.556Z,600.0000
2023-05-09T06:24:14.399Z,599.0000
2023-05-09T06:25:11.025Z,597.0000
2023-05-09T06:26:13.212Z,593.0000
2023-05-09T06:27:15.542Z,590.0000
2023-05-09T06:28:17.622Z,586.0000
2023-05-09T06:29:19.877Z,583.0000
2023-05-09T06:30:26.727Z,577.0000
2023-05-09T06:31:25.629Z,573.0000
2023-05-09T06:32:26.643Z,567.0000
2023-05-09T06:33:28.663Z,513.0000
2023-05-09T06:34:30.824Z,493.0000
2023-05-09T06:35:32.998Z,488.0000
2023-05-09T06:36:35.105Z,498.0000
2023-05-09T06:37:37.427Z,503.0000
2023-05-09T06:38:39.520Z,505.0000
2023-05-09T06:39:39.604Z,503.0000
2023-05-09T06:40:41.815Z,505.0000
2023-05-09T06:41:44.049Z,505.0000
2023-05-09T06:42:46.319Z,504.0000
2023-05-09T06:43:49.906Z,508.0000
2023-05-09T06:44:50.831Z,507.0000
2023-05-09T06:45:53.209Z,507.0000
2023-05-09T06:46:55.312Z,506.0000
2023-05-09T06:47:57.677Z,507.0000
2023-05-09T06:48:59.821Z,508.0000
2023-05-09T06:50:53.619Z,506.0000
2023-05-09T06:51:55.725Z,511.0000
2023-05-09T06:52:57.874Z,509.0000
2023-05-09T06:54:00.094Z,504.0000
2023-05-09T06:55:02.181Z,508.0000
2023-05-09T06:56:04.393Z,510.0000
2023-05-09T06:57:06.574Z,512.0000
2023-05-09T06:58:08.763Z,518.0000
2023-05-09T06:59:10.944Z,525.0000
2023-05-09T07:00:10.938Z,530.0000
2023-05-09T07:01:13.227Z,538.0000
2023-05-09T07:02:15.206Z,546.0000
2023-05-09T07:03:17.346Z,547.0000
2023-05-09T07:04:19.582Z,547.0000
2023-05-09T07:05:21.572Z,551.0000
2023-05-09T07:06:23.608Z,554.0000
2023-05-09T07:07:25.690Z,557.0000
2023-05-09T07:08:27.857Z,559.0000
2023-05-09T07:09:30.147Z,558.0000
2023-05-09T07:10:32.254Z,560.0000
2023-05-09T07:11:34.354Z,561.0000
2023-05-09T07:12:36.558Z,568.0000
2023-05-09T07:13:38.759Z,571.0000
2023-05-09T07:14:40.985Z,574.0000
2023-05-09T07:15:43.511Z,576.0000
2023-05-09T07:16:45.592Z,579.0000
2023-05-09T07:17:47.565Z,583.0000
2023-05-09T07:18:49.718Z,585.0000
2023-05-09T07:19:51.954Z,589.0000
2023-05-09T07:20:54.020Z,586.0000
2023-05-09T07:21:56.236Z,585.0000
2023-05-09T07:22:58.551Z,587.0000
2023-05-09T07:23:58.600Z,590.0000
2023-05-09T07:25:00.882Z,595.0000
2023-05-09T07:26:03.089Z,595.0000
2023-05-09T07:27:05.360Z,595.0000
2023-05-09T07:28:07.593Z,598.0000
2023-05-09T07:29:09.846Z,593.0000
2023-05-09T07:30:12.203Z,582.0000
2023-05-09T07:31:14.328Z,568.0000
2023-05-09T07:32:14.523Z,562.0000
2023-05-09T07:33:16.523Z,559.0000
2023-05-09T07:34:18.719Z,559.0000
2023-05-09T07:35:20.952Z,557.0000
2023-05-09T07:36:23.029Z,558.0000
2023-05-09T07:37:25.210Z,554.0000
2023-05-09T07:38:27.367Z,551.0000
2023-05-09T07:39:29.589Z,549.0000
2023-05-09T07:40:31.820Z,545.0000
2023-05-09T07:41:33.851Z,540.0000
2023-05-09T07:42:35.977Z,540.0000
2023-05-09T07:43:38.171Z,537.0000
2023-05-09T07:44:40.332Z,539.0000
2023-05-09T07:45:42.561Z,535.0000
2023-05-09T07:46:44.665Z,532.0000
2023-05-09T07:47:47.036Z,531.0000
2023-05-09T07:48:49.023Z,526.0000
2023-05-09T07:49:51.164Z,519.0000
2023-05-09T07:50:53.397Z,518.0000
2023-05-09T07:51:55.583Z,516.0000
2023-05-09T07:52:57.823Z,514.0000
2023-05-09T07:53:59.987Z,513.0000
2023-05-09T07:55:02.209Z,512.0000
2023-05-09T07:56:04.484Z,508.0000
2023-05-09T07:57:06.596Z,507.0000
2023-05-09T07:58:08.812Z,506.0000
2023-05-09T07:59:11.041Z,504.0000
2023-05-09T08:00:13.149Z,501.0000
2023-05-09T08:01:15.353Z,497.0000
2023-05-09T08:02:17.513Z,492.0000
2023-05-09T08:03:17.821Z,490.0000
2023-05-09T08:04:19.829Z,488.0000
2023-05-09T08:05:21.898Z,486.0000
2023-05-09T08:06:24.117Z,490.0000
2023-05-09T08:07:26.263Z,484.0000
2023-05-09T08:08:28.404Z,480.0000
2023-05-09T08:09:30.568Z,480.0000
2023-05-09T08:10:32.784Z,481.0000
2023-05-09T08:11:35.007Z,483.0000
2023-05-09T08:12:37.185Z,475.0000
2023-05-09T08:13:39.415Z,470.0000
2023-05-09T08:14:41.576Z,464.0000
2023-05-09T08:15:43.751Z,464.0000
2023-05-09T08:16:46.082Z,455.0000
2023-05-09T08:17:48.171Z,457.0000
2023-05-09T08:18:50.457Z,458.0000
2023-05-09T08:19:52.575Z,459.0000
2023-05-09T08:20:54.806Z,459.0000
2023-05-09T08:21:57.195Z,461.0000
2023-05-09T08:22:57.111Z,462.0000
2023-05-09T08:23:59.330Z,462.0000
2023-05-09T08:25:01.587Z,461.0000
2023-05-09T08:26:03.815Z,460.0000
2023-05-09T08:27:06.087Z,460.0000
2023-05-09T08:28:08.321Z,456.0000
2023-05-09T08:29:10.575Z,457.0000
2023-05-09T08:30:12.845Z,455.0000
2023-05-09T08:31:12.986Z,453.0000
2023-05-09T08:32:15.477Z,455.0000
2023-05-09T08:33:17.493Z,453.0000
2023-05-09T08:34:19.862Z,453.0000
2023-05-09T08:35:21.971Z,455.0000
2023-05-09T08:36:24.217Z,460.0000
2023-05-09T08:37:26.449Z,459.0000
2023-05-09T08:38:28.682Z,458.0000
2023-05-09T08:39:30.855Z,455.0000
2023-05-09T08:40:33.097Z,460.0000
2023-05-09T08:41:35.299Z,458.0000
2023-05-09T08:42:37.457Z,459.0000
2023-05-09T08:43:39.611Z,457.0000
2023-05-09T08:44:41.803Z,463.0000
2023-05-09T08:45:41.805Z,464.0000
2023-05-09T08:46:44.016Z,471.0000
2023-05-09T08:47:46.269Z,465.0000
2023-05-09T08:48:48.344Z,464.0000
2023-05-09T08:49:50.610Z,462.0000
2023-05-09T08:50:52.701Z,464.0000
2023-05-09T08:51:54.888Z,463.0000
2023-05-09T08:52:57.105Z,465.0000
2023-05-09T08:53:59.269Z,466.0000
2023-05-09T08:55:01.512Z,467.0000
2023-05-09T08:56:03.756Z,466.0000
2023-05-09T08:57:05.951Z,465.0000
2023-05-09T08:58:08.217Z,465.0000
2023-05-09T08:59:10.357Z,465.0000
2023-05-09T09:00:12.646Z,464.0000
2023-05-09T09:01:14.851Z,464.0000
2023-05-09T09:02:17.009Z,463.0000
2023-05-09T09:03:19.288Z,461.0000
2023-05-09T09:04:21.335Z,465.0000
2023-05-09T09:05:39.994Z,462.0000
2023-05-09T09:06:25.764Z,464.0000
2023-05-09T09:07:29.389Z,465.0000
2023-05-09T09:08:30.170Z,468.0000
2023-05-09T09:09:32.325Z,467.0000
2023-05-09T09:10:34.535Z,466.0000
2023-05-09T09:11:36.792Z,462.0000
2023-05-09T09:12:38.930Z,461.0000
2023-05-09T09:13:41.182Z,460.0000
2023-05-09T09:14:43.375Z,463.0000
2023-05-09T09:15:45.612Z,469.0000
2023-05-09T09:16:47.844Z,477.0000
2023-05-09T09:17:50.111Z,474.0000
2023-05-09T09:18:50.238Z,459.0000
2023-05-09T09:19:52.405Z,446.0000
2023-05-09T09:20:54.657Z,441.0000
2023-05-09T09:21:56.740Z,441.0000
2023-05-09T09:22:58.944Z,437.0000
2023-05-09T09:24:01.232Z,438.0000
2023-05-09T09:25:03.333Z,441.0000
2023-05-09T09:26:05.517Z,444.0000
2023-05-09T09:27:07.717Z,443.0000
2023-05-09T09:28:09.930Z,441.0000
2023-05-09T09:29:12.226Z,443.0000
2023-05-09T09:30:14.546Z,443.0000
2023-05-09T09:31:17.246Z,445.0000
2023-05-09T09:32:18.914Z,446.0000
2023-05-09T09:33:21.098Z,445.0000
2023-05-09T09:34:23.370Z,443.0000
2023-05-09T09:35:21.851Z,413.0000
2023-05-09T09:36:23.686Z,423.0000
2023-05-09T09:37:25.703Z,423.0000
2023-05-09T09:38:27.868Z,428.0000
2023-05-09T09:39:30.069Z,426.0000
2023-05-09T09:40:32.230Z,426.0000
2023-05-09T09:41:34.409Z,426.0000
2023-05-09T09:42:36.632Z,426.0000
2023-05-09T09:43:38.824Z,425.0000
2023-05-09T09:44:41.134Z,424.0000
2023-05-09T09:45:43.275Z,424.0000
2023-05-09T09:46:45.473Z,426.0000
2023-05-09T09:47:47.690Z,428.0000
2023-05-09T09:48:47.672Z,432.0000
2023-05-09T09:49:50.045Z,428.0000
2023-05-09T09:50:52.116Z,428.0000
2023-05-09T09:51:54.438Z,428.0000
2023-05-09T09:52:56.593Z,429.0000
2023-05-09T09:53:58.780Z,429.0000
2023-05-09T09:55:01.111Z,427.0000
2023-05-09T09:56:03.156Z,426.0000
2023-05-09T09:57:05.373Z,425.0000
2023-05-09T09:58:07.592Z,422.0000
2023-05-09T09:59:09.833Z,421.0000
2023-05-09T10:00:12.104Z,422.0000
2023-05-09T10:01:14.392Z,423.0000
2023-05-09T10:02:16.489Z,419.0000
2023-05-09T10:02:29.409Z,418.0000
2023-05-09T10:03:31.653Z,415.0000
2023-05-09T10:04:33.836Z,417.0000
2023-05-09T10:05:36.103Z,419.0000
2023-05-09T10:06:38.249Z,420.0000
2023-05-09T10:07:40.602Z,426.0000
2023-05-09T10:08:42.746Z,429.0000
2023-05-09T10:09:44.957Z,432.0000
2023-05-09T10:10:47.296Z,435.0000
2023-05-09T10:11:49.407Z,432.0000
2023-05-09T10:12:49.553Z,431.0000
2023-05-09T10:13:51.713Z,429.0000
2023-05-09T10:14:53.977Z,427.0000
2023-05-09T10:15:56.305Z,424.0000
2023-05-09T10:16:58.544Z,426.0000
2023-05-09T10:18:00.860Z,427.0000
2023-05-09T10:19:02.803Z,429.0000
2023-05-09T10:20:05.070Z,428.0000
2023-05-09T10:21:07.173Z,429.0000
2023-05-09T10:22:09.330Z,429.0000
2023-05-09T10:23:11.637Z,429.0000
2023-05-09T10:24:13.697Z,433.0000
2023-05-09T10:25:16.104Z,434.0000
2023-05-09T10:26:18.106Z,433.0000
2023-05-09T10:27:20.278Z,435.0000
2023-05-09T10:28:22.453Z,437.0000
2023-05-09T10:29:24.627Z,436.0000
2023-05-09T10:30:26.789Z,437.0000
2023-05-09T10:31:29.256Z,437.0000
2023-05-09T10:32:29.006Z,439.0000
2023-05-09T10:33:31.222Z,439.0000
2023-05-09T10:34:33.357Z,441.0000
2023-05-09T10:35:35.523Z,442.0000
2023-05-09T10:36:37.746Z,442.0000
2023-05-09T10:37:39.823Z,438.0000
2023-05-09T10:38:42.089Z,437.0000
2023-05-09T10:39:44.193Z,433.0000
2023-05-09T10:40:46.423Z,433.0000
2023-05-09T10:41:48.799Z,434.0000
2023-05-09T10:42:50.939Z,436.0000
2023-05-09T10:43:53.171Z,434.0000
2023-05-09T10:44:55.410Z,431.0000
2023-05-09T10:45:57.606Z,430.0000
2023-05-09T10:47:00.075Z,431.0000
2023-05-09T10:48:02.034Z,433.0000
2023-05-09T10:49:04.160Z,437.0000
2023-05-09T10:50:06.349Z,435.0000
2023-05-09T10:51:08.497Z,433.0000
2023-05-09T10:52:10.761Z,431.0000
2023-05-09T10:53:10.813Z,432.0000
2023-05-09T10:54:13.156Z,435.0000
2023-05-09T10:55:15.589Z,445.0000
2023-05-09T10:56:17.456Z,448.0000
2023-05-09T10:57:19.686Z,445.0000
2023-05-09T10:58:21.897Z,444.0000
2023-05-09T10:59:24.095Z,445.0000
2023-05-09T11:00:26.324Z,443.0000
2023-05-09T11:01:28.558Z,441.0000
2023-05-09T11:02:30.788Z,439.0000
2023-05-09T11:03:32.926Z,441.0000
2023-05-09T11:04:35.033Z,443.0000
2023-05-09T11:05:37.204Z,446.0000
2023-05-09T11:06:39.369Z,450.0000
2023-05-09T11:07:41.539Z,448.0000
2023-05-09T11:08:43.707Z,451.0000
2023-05-09T11:09:46.005Z,455.0000
2023-05-09T11:10:48.091Z,457.0000
2023-05-09T11:11:50.239Z,458.0000
2023-05-09T11:12:50.405Z,454.0000
2023-05-09T11:13:52.447Z,452.0000
2023-05-09T11:14:54.630Z,453.0000
2023-05-09T11:15:56.837Z,454.0000
2023-05-09T11:16:58.960Z,454.0000
2023-05-09T11:18:03.262Z,455.0000
2023-05-09T11:19:03.231Z,453.0000
2023-05-09T11:20:05.458Z,452.0000
2023-05-09T11:21:07.635Z,452.0000
2023-05-09T11:22:09.833Z,451.0000
2023-05-09T11:23:12.184Z,450.0000
2023-05-09T11:24:14.259Z,450.0000
2023-05-09T11:25:17.022Z,446.0000
2023-05-09T11:26:18.686Z,446.0000
2023-05-09T11:27:20.888Z,445.0000
2023-05-09T11:28:23.085Z,441.0000
2023-05-09T11:29:23.086Z,441.0000
2023-05-09T11:30:23.094Z,444.0000
2023-05-09T11:31:25.261Z,446.0000
2023-05-09T11:32:27.420Z,444.0000
2023-05-09T11:33:29.604Z,443.0000
2023-05-09T11:34:31.700Z,443.0000
2023-05-09T11:35:33.871Z,442.0000
2023-05-09T11:36:36.042Z,443.0000
2023-05-09T11:37:38.210Z,444.0000
2023-05-09T11:38:40.378Z,445.0000
2023-05-09T11:39:42.540Z,443.0000
2023-05-09T11:40:44.839Z,443.0000
2023-05-09T11:41:46.866Z,441.0000
2023-05-09T11:42:49.045Z,442.0000
2023-05-09T11:43:51.349Z,444.0000
2023-05-09T11:44:53.388Z,446.0000
2023-05-09T11:45:55.592Z,445.0000
2023-05-09T11:46:57.721Z,446.0000
2023-05-09T11:47:59.930Z,448.0000
2023-05-09T11:49:02.176Z,451.0000
2023-05-09T11:50:04.221Z,453.0000
2023-05-09T11:51:08.494Z,451.0000
2023-05-09T11:52:08.558Z,450.0000
2023-05-09T11:53:10.741Z,456.0000
2023-05-09T11:54:13.014Z,450.0000
2023-05-09T11:55:13.144Z,448.0000
2023-05-09T11:56:13.267Z,449.0000
2023-05-09T11:57:15.311Z,447.0000
2023-05-09T11:58:17.517Z,444.0000
2023-05-09T11:59:19.707Z,446.0000
2023-05-09T12:00:21.887Z,445.0000
2023-05-09T12:01:24.071Z,446.0000
2023-05-09T12:01:43.415Z,448.0000
2023-05-09T12:02:45.675Z,448.0000
2023-05-09T12:03:47.871Z,451.0000
2023-05-09T12:04:50.002Z,457.0000
2023-05-09T12:05:52.174Z,455.0000
2023-05-09T12:06:54.351Z,455.0000
2023-05-09T12:07:56.605Z,455.0000
2023-05-09T12:08:58.848Z,452.0000
2023-05-09T12:10:01.169Z,458.0000
2023-05-09T12:11:03.323Z,457.0000